sensor_id;sensor_type;location;lat;lon;timestamp;temperature;humidity
15111;DHT22;7656;51.954;7.998;2023-02-28T00:00:11;1.10;99.90
15111;DHT22;7656;51.954;7.998;2023-02-28T00:04:33;1.20;99.90
15111;DHT22;7656;51.954;7.998;2023-02-28T00:08:55;1.00;99.90
15111;DHT22;7656;51.954;7.998;2023-02-28T00:13:16;0.90;99.90
15111;DHT22;7656;51.954;7.998;2023-02-28T00:17:37;0.90;99.90
15111;DHT22;7656;51.954;7.998;2023-02-28T00:21:58;0.80;99.90
15111;DHT22;7656;51.954;7.998;2023-02-28T00:26:19;0.70;99.90
15111;DHT22;7656;51.954;7.998;2023-02-28T00:30:40;0.70;99.90
15111;DHT22;7656;51.954;7.998;2023-02-28T00:35:04;0.60;99.90
15111;DHT22;7656;51.954;7.998;2023-02-28T00:39:25;0.70;99.90
15111;DHT22;7656;51.954;7.998;2023-02-28T00:43:46;0.70;99.90
15111;DHT22;7656;51.954;7.998;2023-02-28T00:48:07;0.50;99.90
15111;DHT22;7656;51.954;7.998;2023-02-28T00:52:28;0.40;99.90
15111;DHT22;7656;51.954;7.998;2023-02-28T00:56:50;0.40;99.90
15111;DHT22;7656;51.954;7.998;2023-02-28T01:01:11;0.60;99.90
15111;DHT22;7656;51.954;7.998;2023-02-28T01:05:32;0.50;99.90
15111;DHT22;7656;51.954;7.998;2023-02-28T01:09:53;0.40;99.90
15111;DHT22;7656;51.954;7.998;2023-02-28T01:14:16;0.30;99.90
15111;DHT22;7656;51.954;7.998;2023-02-28T01:18:40;0.20;99.90
15111;DHT22;7656;51.954;7.998;2023-02-28T01:23:02;0.20;99.90
15111;DHT22;7656;51.954;7.998;2023-02-28T01:27:23;0.20;99.90
15111;DHT22;7656;51.954;7.998;2023-02-28T01:31:44;0.20;99.90
15111;DHT22;7656;51.954;7.998;2023-02-28T01:36:09;0.30;99.90
15111;DHT22;7656;51.954;7.998;2023-02-28T01:40:31;0.30;99.90
15111;DHT22;7656;51.954;7.998;2023-02-28T01:45:27;0.20;99.90
15111;DHT22;7656;51.954;7.998;2023-02-28T01:49:50;0.20;99.90
15111;DHT22;7656;51.954;7.998;2023-02-28T01:54:18;0.20;99.90
15111;DHT22;7656;51.954;7.998;2023-02-28T01:58:41;-0.20;99.90
15111;DHT22;7656;51.954;7.998;2023-02-28T02:03:08;-0.20;99.90
15111;DHT22;7656;51.954;7.998;2023-02-28T02:07:34;-0.20;99.90
15111;DHT22;7656;51.954;7.998;2023-02-28T02:11:57;-0.10;99.90
15111;DHT22;7656;51.954;7.998;2023-02-28T02:21:45;-0.20;99.90
15111;DHT22;7656;51.954;7.998;2023-02-28T02:31:38;-0.30;99.90
15111;DHT22;7656;51.954;7.998;2023-02-28T02:36:30;-0.40;99.90
15111;DHT22;7656;51.954;7.998;2023-02-28T02:41:23;-0.50;99.90
15111;DHT22;7656;51.954;7.998;2023-02-28T02:46:17;-0.70;99.90
15111;DHT22;7656;51.954;7.998;2023-02-28T02:50:45;-0.80;99.90
15111;DHT22;7656;51.954;7.998;2023-02-28T02:55:13;-1.00;99.90
15111;DHT22;7656;51.954;7.998;2023-02-28T02:59:40;-0.90;99.90
15111;DHT22;7656;51.954;7.998;2023-02-28T03:04:05;-0.80;99.90
15111;DHT22;7656;51.954;7.998;2023-02-28T03:08:33;-0.70;99.90
15111;DHT22;7656;51.954;7.998;2023-02-28T03:13:22;-0.70;99.90
15111;DHT22;7656;51.954;7.998;2023-02-28T03:18:04;-0.80;99.90
15111;DHT22;7656;51.954;7.998;2023-02-28T03:22:45;-0.90;99.90
15111;DHT22;7656;51.954;7.998;2023-02-28T03:27:27;-0.80;99.90
15111;DHT22;7656;51.954;7.998;2023-02-28T03:31:55;-0.90;99.90
15111;DHT22;7656;51.954;7.998;2023-02-28T03:36:21;-0.80;99.90
15111;DHT22;7656;51.954;7.998;2023-02-28T03:40:53;-0.80;99.90
15111;DHT22;7656;51.954;7.998;2023-02-28T03:45:22;-0.90;99.90
15111;DHT22;7656;51.954;7.998;2023-02-28T03:49:50;-1.00;99.90
15111;DHT22;7656;51.954;7.998;2023-02-28T03:54:34;-0.90;99.90
15111;DHT22;7656;51.954;7.998;2023-02-28T03:59:17;-1.10;99.90
15111;DHT22;7656;51.954;7.998;2023-02-28T04:03:42;-1.00;99.90
15111;DHT22;7656;51.954;7.998;2023-02-28T04:08:07;-1.00;99.90
15111;DHT22;7656;51.954;7.998;2023-02-28T04:12:28;-1.00;99.90
15111;DHT22;7656;51.954;7.998;2023-02-28T04:16:49;-1.00;99.90
15111;DHT22;7656;51.954;7.998;2023-02-28T04:21:11;-1.00;99.90
15111;DHT22;7656;51.954;7.998;2023-02-28T04:25:33;-0.90;99.90
15111;DHT22;7656;51.954;7.998;2023-02-28T04:29:54;-1.00;99.90
15111;DHT22;7656;51.954;7.998;2023-02-28T04:34:15;-1.00;99.90
15111;DHT22;7656;51.954;7.998;2023-02-28T04:38:37;-0.90;99.90
15111;DHT22;7656;51.954;7.998;2023-02-28T04:42:59;-0.90;99.90
15111;DHT22;7656;51.954;7.998;2023-02-28T04:47:20;-0.90;99.90
15111;DHT22;7656;51.954;7.998;2023-02-28T04:51:41;-0.90;99.90
15111;DHT22;7656;51.954;7.998;2023-02-28T04:56:02;-1.10;99.90
15111;DHT22;7656;51.954;7.998;2023-02-28T05:00:24;-1.20;99.90
15111;DHT22;7656;51.954;7.998;2023-02-28T05:04:45;-1.30;99.90
15111;DHT22;7656;51.954;7.998;2023-02-28T05:09:06;-1.30;99.90
15111;DHT22;7656;51.954;7.998;2023-02-28T05:13:28;-1.30;99.90
15111;DHT22;7656;51.954;7.998;2023-02-28T05:17:49;-1.20;99.90
15111;DHT22;7656;51.954;7.998;2023-02-28T05:22:14;-1.30;99.90
15111;DHT22;7656;51.954;7.998;2023-02-28T05:26:40;-1.50;99.90
15111;DHT22;7656;51.954;7.998;2023-02-28T05:31:03;-1.50;99.90
15111;DHT22;7656;51.954;7.998;2023-02-28T05:35:25;-1.40;99.90
15111;DHT22;7656;51.954;7.998;2023-02-28T05:39:47;-1.40;99.90
15111;DHT22;7656;51.954;7.998;2023-02-28T05:44:08;-1.50;99.90
15111;DHT22;7656;51.954;7.998;2023-02-28T05:48:30;-1.50;99.90
15111;DHT22;7656;51.954;7.998;2023-02-28T05:52:51;-1.40;99.90
15111;DHT22;7656;51.954;7.998;2023-02-28T05:57:12;-1.30;99.90
15111;DHT22;7656;51.954;7.998;2023-02-28T06:01:38;-1.30;99.90
15111;DHT22;7656;51.954;7.998;2023-02-28T06:06:01;-1.40;99.90
15111;DHT22;7656;51.954;7.998;2023-02-28T06:10:22;-1.40;99.90
15111;DHT22;7656;51.954;7.998;2023-02-28T06:14:43;-1.50;99.90
15111;DHT22;7656;51.954;7.998;2023-02-28T06:19:04;-1.40;99.90
15111;DHT22;7656;51.954;7.998;2023-02-28T06:23:25;-1.30;99.90
15111;DHT22;7656;51.954;7.998;2023-02-28T06:27:46;-1.40;99.90
15111;DHT22;7656;51.954;7.998;2023-02-28T06:32:07;-1.30;99.90
15111;DHT22;7656;51.954;7.998;2023-02-28T06:36:28;-1.30;99.90
15111;DHT22;7656;51.954;7.998;2023-02-28T06:40:54;-1.20;99.90
15111;DHT22;7656;51.954;7.998;2023-02-28T06:45:16;-1.00;99.90
15111;DHT22;7656;51.954;7.998;2023-02-28T06:49:37;-0.70;99.90
15111;DHT22;7656;51.954;7.998;2023-02-28T06:53:59;-0.60;99.90
15111;DHT22;7656;51.954;7.998;2023-02-28T06:58:20;-0.30;99.90
15111;DHT22;7656;51.954;7.998;2023-02-28T07:02:42;0.30;99.90
15111;DHT22;7656;51.954;7.998;2023-02-28T07:07:03;0.90;99.90
15111;DHT22;7656;51.954;7.998;2023-02-28T07:11:26;1.60;99.90
15111;DHT22;7656;51.954;7.998;2023-02-28T07:16:02;2.30;99.90
15111;DHT22;7656;51.954;7.998;2023-02-28T07:20:25;2.60;99.90
15111;DHT22;7656;51.954;7.998;2023-02-28T07:24:46;3.10;99.90
15111;DHT22;7656;51.954;7.998;2023-02-28T07:29:07;3.40;99.90
15111;DHT22;7656;51.954;7.998;2023-02-28T07:33:28;4.20;99.90
15111;DHT22;7656;51.954;7.998;2023-02-28T07:37:49;5.10;99.90
15111;DHT22;7656;51.954;7.998;2023-02-28T07:42:10;7.60;99.90
15111;DHT22;7656;51.954;7.998;2023-02-28T07:46:33;11.70;99.90
15111;DHT22;7656;51.954;7.998;2023-02-28T07:50:57;15.50;99.90
15111;DHT22;7656;51.954;7.998;2023-02-28T09:31:24;30.00;33.10
15111;DHT22;7656;51.954;7.998;2023-02-28T09:35:46;28.80;34.20
15111;DHT22;7656;51.954;7.998;2023-02-28T09:40:09;26.70;32.60
15111;DHT22;7656;51.954;7.998;2023-02-28T09:44:36;23.70;39.10
15111;DHT22;7656;51.954;7.998;2023-02-28T09:49:22;26.10;36.20
15111;DHT22;7656;51.954;7.998;2023-02-28T09:53:43;26.20;35.50
15111;DHT22;7656;51.954;7.998;2023-02-28T09:58:05;25.40;36.90
15111;DHT22;7656;51.954;7.998;2023-02-28T10:12:19;20.90;39.20
15111;DHT22;7656;51.954;7.998;2023-02-28T10:16:45;18.10;41.70
15111;DHT22;7656;51.954;7.998;2023-02-28T10:21:24;21.70;39.90
15111;DHT22;7656;51.954;7.998;2023-02-28T10:25:59;20.20;40.80
15111;DHT22;7656;51.954;7.998;2023-02-28T10:30:21;19.30;42.00
15111;DHT22;7656;51.954;7.998;2023-02-28T10:34:43;19.10;40.40
15111;DHT22;7656;51.954;7.998;2023-02-28T10:39:40;14.80;47.00
15111;DHT22;7656;51.954;7.998;2023-02-28T10:44:21;14.70;46.30
15111;DHT22;7656;51.954;7.998;2023-02-28T10:49:35;12.50;47.80
15111;DHT22;7656;51.954;7.998;2023-02-28T10:53:50;10.90;51.90
15111;DHT22;7656;51.954;7.998;2023-02-28T10:58:27;11.60;51.40
15111;DHT22;7656;51.954;7.998;2023-02-28T11:02:51;12.50;51.00
15111;DHT22;7656;51.954;7.998;2023-02-28T11:07:20;13.20;50.80
15111;DHT22;7656;51.954;7.998;2023-02-28T11:11:45;13.80;48.10
15111;DHT22;7656;51.954;7.998;2023-02-28T11:16:11;14.30;49.20
15111;DHT22;7656;51.954;7.998;2023-02-28T11:20:34;16.40;47.70
15111;DHT22;7656;51.954;7.998;2023-02-28T11:25:01;15.00;47.80
15111;DHT22;7656;51.954;7.998;2023-02-28T11:29:29;9.00;58.00
15111;DHT22;7656;51.954;7.998;2023-02-28T11:33:53;8.40;60.90
15111;DHT22;7656;51.954;7.998;2023-02-28T11:38:16;10.50;56.70
15111;DHT22;7656;51.954;7.998;2023-02-28T11:42:49;9.80;58.80
15111;DHT22;7656;51.954;7.998;2023-02-28T11:52:53;9.70;58.80
15111;DHT22;7656;51.954;7.998;2023-02-28T12:02:48;13.40;53.20
15111;DHT22;7656;51.954;7.998;2023-02-28T12:07:47;13.70;52.50
15111;DHT22;7656;51.954;7.998;2023-02-28T12:17:11;14.80;51.40
15111;DHT22;7656;51.954;7.998;2023-02-28T12:26:47;12.30;53.70
15111;DHT22;7656;51.954;7.998;2023-02-28T12:31:24;12.80;54.40
15111;DHT22;7656;51.954;7.998;2023-02-28T12:35:54;13.10;54.00
15111;DHT22;7656;51.954;7.998;2023-02-28T12:40:22;13.60;54.70
15111;DHT22;7656;51.954;7.998;2023-02-28T12:44:50;13.00;53.70
15111;DHT22;7656;51.954;7.998;2023-02-28T12:49:37;9.60;59.60
15111;DHT22;7656;51.954;7.998;2023-02-28T12:54:04;9.10;60.10
15111;DHT22;7656;51.954;7.998;2023-02-28T13:08:23;12.70;54.60
15111;DHT22;7656;51.954;7.998;2023-02-28T13:13:04;14.10;52.90
15111;DHT22;7656;51.954;7.998;2023-02-28T13:17:26;17.60;48.80
15111;DHT22;7656;51.954;7.998;2023-02-28T13:21:47;15.60;50.50
15111;DHT22;7656;51.954;7.998;2023-02-28T13:26:08;12.20;53.80
15111;DHT22;7656;51.954;7.998;2023-02-28T13:35:35;9.20;61.10
15111;DHT22;7656;51.954;7.998;2023-02-28T13:44:27;9.60;63.40
15111;DHT22;7656;51.954;7.998;2023-02-28T13:48:48;10.00;59.70
15111;DHT22;7656;51.954;7.998;2023-02-28T14:06:59;15.20;54.10
15111;DHT22;7656;51.954;7.998;2023-02-28T14:11:29;13.10;55.90
15111;DHT22;7656;51.954;7.998;2023-02-28T14:15:59;13.50;55.00
15111;DHT22;7656;51.954;7.998;2023-02-28T14:20:25;13.60;54.40
15111;DHT22;7656;51.954;7.998;2023-02-28T14:35:04;14.10;54.40
15111;DHT22;7656;51.954;7.998;2023-02-28T14:39:34;14.20;54.20
15111;DHT22;7656;51.954;7.998;2023-02-28T14:44:00;13.50;54.60
15111;DHT22;7656;51.954;7.998;2023-02-28T14:48:22;13.60;55.10
15111;DHT22;7656;51.954;7.998;2023-02-28T14:52:45;13.20;55.30
15111;DHT22;7656;51.954;7.998;2023-02-28T14:57:19;12.20;56.30
15111;DHT22;7656;51.954;7.998;2023-02-28T15:01:42;11.80;58.30
15111;DHT22;7656;51.954;7.998;2023-02-28T15:10:27;9.20;64.40
15111;DHT22;7656;51.954;7.998;2023-02-28T15:14:48;9.60;63.10
15111;DHT22;7656;51.954;7.998;2023-02-28T15:24:37;9.60;61.80
15111;DHT22;7656;51.954;7.998;2023-02-28T15:28:58;9.60;64.00
15111;DHT22;7656;51.954;7.998;2023-02-28T15:33:24;9.90;63.30
15111;DHT22;7656;51.954;7.998;2023-02-28T15:38:33;10.00;62.80
15111;DHT22;7656;51.954;7.998;2023-02-28T15:42:36;10.10;63.10
15111;DHT22;7656;51.954;7.998;2023-02-28T15:56:01;8.50;66.60
15111;DHT22;7656;51.954;7.998;2023-02-28T16:00:26;8.80;66.90
15111;DHT22;7656;51.954;7.998;2023-02-28T16:09:32;9.00;67.40
15111;DHT22;7656;51.954;7.998;2023-02-28T16:13:53;8.80;68.60
15111;DHT22;7656;51.954;7.998;2023-02-28T16:18:14;8.70;68.60
15111;DHT22;7656;51.954;7.998;2023-02-28T16:22:35;8.30;68.70
15111;DHT22;7656;51.954;7.998;2023-02-28T16:26:56;8.30;71.60
15111;DHT22;7656;51.954;7.998;2023-02-28T16:31:18;8.40;70.20
15111;DHT22;7656;51.954;7.998;2023-02-28T16:35:39;8.10;71.30
15111;DHT22;7656;51.954;7.998;2023-02-28T16:40:00;8.00;72.30
15111;DHT22;7656;51.954;7.998;2023-02-28T16:44:31;7.50;73.10
15111;DHT22;7656;51.954;7.998;2023-02-28T16:48:54;7.30;73.90
15111;DHT22;7656;51.954;7.998;2023-02-28T16:53:15;7.20;74.90
15111;DHT22;7656;51.954;7.998;2023-02-28T16:57:36;7.20;74.90
15111;DHT22;7656;51.954;7.998;2023-02-28T17:01:58;7.00;75.40
15111;DHT22;7656;51.954;7.998;2023-02-28T17:06:21;7.00;75.60
15111;DHT22;7656;51.954;7.998;2023-02-28T17:10:45;6.90;76.90
15111;DHT22;7656;51.954;7.998;2023-02-28T17:15:06;6.70;78.00
15111;DHT22;7656;51.954;7.998;2023-02-28T17:19:29;6.50;79.10
15111;DHT22;7656;51.954;7.998;2023-02-28T17:23:50;6.20;80.50
15111;DHT22;7656;51.954;7.998;2023-02-28T17:28:11;6.10;81.30
15111;DHT22;7656;51.954;7.998;2023-02-28T17:32:32;6.00;82.30
15111;DHT22;7656;51.954;7.998;2023-02-28T17:36:53;5.90;83.20
15111;DHT22;7656;51.954;7.998;2023-02-28T17:41:14;5.90;84.10
15111;DHT22;7656;51.954;7.998;2023-02-28T17:45:36;5.70;85.10
15111;DHT22;7656;51.954;7.998;2023-02-28T17:49:57;5.50;86.70
15111;DHT22;7656;51.954;7.998;2023-02-28T17:54:18;5.50;87.90
15111;DHT22;7656;51.954;7.998;2023-02-28T17:58:40;5.40;88.70
15111;DHT22;7656;51.954;7.998;2023-02-28T18:03:01;5.30;89.90
15111;DHT22;7656;51.954;7.998;2023-02-28T18:07:23;5.30;90.40
15111;DHT22;7656;51.954;7.998;2023-02-28T18:11:44;5.10;90.90
15111;DHT22;7656;51.954;7.998;2023-02-28T18:16:07;5.00;91.80
15111;DHT22;7656;51.954;7.998;2023-02-28T18:20:29;4.90;92.40
15111;DHT22;7656;51.954;7.998;2023-02-28T18:24:50;4.80;93.20
15111;DHT22;7656;51.954;7.998;2023-02-28T18:29:23;4.70;93.80
15111;DHT22;7656;51.954;7.998;2023-02-28T18:33:50;4.60;94.70
15111;DHT22;7656;51.954;7.998;2023-02-28T18:38:13;4.50;95.40
15111;DHT22;7656;51.954;7.998;2023-02-28T18:42:35;4.50;96.20
15111;DHT22;7656;51.954;7.998;2023-02-28T18:46:56;4.50;96.70
15111;DHT22;7656;51.954;7.998;2023-02-28T18:51:20;4.30;97.80
15111;DHT22;7656;51.954;7.998;2023-02-28T18:55:45;4.20;99.00
15111;DHT22;7656;51.954;7.998;2023-02-28T19:00:06;4.20;99.70
15111;DHT22;7656;51.954;7.998;2023-02-28T19:04:28;4.20;99.90
15111;DHT22;7656;51.954;7.998;2023-02-28T19:08:57;4.00;99.90
15111;DHT22;7656;51.954;7.998;2023-02-28T19:13:19;3.90;99.90
15111;DHT22;7656;51.954;7.998;2023-02-28T19:17:40;3.70;99.90
15111;DHT22;7656;51.954;7.998;2023-02-28T19:22:01;3.60;99.90
15111;DHT22;7656;51.954;7.998;2023-02-28T19:26:24;3.70;99.90
15111;DHT22;7656;51.954;7.998;2023-02-28T19:30:50;3.60;99.90
15111;DHT22;7656;51.954;7.998;2023-02-28T19:35:13;3.60;99.90
15111;DHT22;7656;51.954;7.998;2023-02-28T19:39:34;3.50;99.90
15111;DHT22;7656;51.954;7.998;2023-02-28T19:44:00;3.40;99.90
15111;DHT22;7656;51.954;7.998;2023-02-28T19:48:22;3.30;99.90
15111;DHT22;7656;51.954;7.998;2023-02-28T19:52:45;3.20;99.90
15111;DHT22;7656;51.954;7.998;2023-02-28T19:57:09;2.80;99.90
15111;DHT22;7656;51.954;7.998;2023-02-28T20:01:30;2.40;99.90
15111;DHT22;7656;51.954;7.998;2023-02-28T20:06:03;2.40;99.90
15111;DHT22;7656;51.954;7.998;2023-02-28T20:10:26;2.40;99.90
15111;DHT22;7656;51.954;7.998;2023-02-28T20:14:48;2.50;99.90
15111;DHT22;7656;51.954;7.998;2023-02-28T20:19:10;2.50;99.90
15111;DHT22;7656;51.954;7.998;2023-02-28T20:23:32;2.50;99.90
15111;DHT22;7656;51.954;7.998;2023-02-28T20:27:53;2.40;99.90
15111;DHT22;7656;51.954;7.998;2023-02-28T20:32:15;2.40;99.90
15111;DHT22;7656;51.954;7.998;2023-02-28T20:36:36;2.40;99.90
15111;DHT22;7656;51.954;7.998;2023-02-28T20:41:00;2.50;99.90
15111;DHT22;7656;51.954;7.998;2023-02-28T20:45:22;2.40;99.90
15111;DHT22;7656;51.954;7.998;2023-02-28T20:49:44;2.30;99.90
15111;DHT22;7656;51.954;7.998;2023-02-28T20:54:06;2.20;99.90
15111;DHT22;7656;51.954;7.998;2023-02-28T20:58:30;2.20;99.90
15111;DHT22;7656;51.954;7.998;2023-02-28T21:02:52;2.20;99.90
15111;DHT22;7656;51.954;7.998;2023-02-28T21:07:13;2.10;99.90
15111;DHT22;7656;51.954;7.998;2023-02-28T21:11:37;2.00;99.90
15111;DHT22;7656;51.954;7.998;2023-02-28T21:16:03;1.90;99.90
15111;DHT22;7656;51.954;7.998;2023-02-28T21:20:25;1.80;99.90
15111;DHT22;7656;51.954;7.998;2023-02-28T21:24:47;1.70;99.90
15111;DHT22;7656;51.954;7.998;2023-02-28T21:29:08;1.80;99.90
15111;DHT22;7656;51.954;7.998;2023-02-28T21:33:29;1.70;99.90
15111;DHT22;7656;51.954;7.998;2023-02-28T21:37:50;1.60;99.90
15111;DHT22;7656;51.954;7.998;2023-02-28T21:42:11;1.60;99.90
15111;DHT22;7656;51.954;7.998;2023-02-28T21:46:33;1.40;99.90
15111;DHT22;7656;51.954;7.998;2023-02-28T21:50:55;1.30;99.90
15111;DHT22;7656;51.954;7.998;2023-02-28T21:55:17;1.30;99.90
15111;DHT22;7656;51.954;7.998;2023-02-28T21:59:38;1.40;99.90
15111;DHT22;7656;51.954;7.998;2023-02-28T22:04:01;1.30;99.90
15111;DHT22;7656;51.954;7.998;2023-02-28T22:08:24;1.10;99.90
15111;DHT22;7656;51.954;7.998;2023-02-28T22:12:45;1.10;99.90
15111;DHT22;7656;51.954;7.998;2023-02-28T22:17:06;1.20;99.90
15111;DHT22;7656;51.954;7.998;2023-02-28T22:21:27;1.30;99.90
15111;DHT22;7656;51.954;7.998;2023-02-28T22:25:48;1.20;99.90
15111;DHT22;7656;51.954;7.998;2023-02-28T22:30:09;1.20;99.90
15111;DHT22;7656;51.954;7.998;2023-02-28T22:34:31;1.10;99.90
15111;DHT22;7656;51.954;7.998;2023-02-28T22:38:52;1.00;99.90
15111;DHT22;7656;51.954;7.998;2023-02-28T22:43:13;1.00;99.90
15111;DHT22;7656;51.954;7.998;2023-02-28T22:47:34;1.00;99.90
15111;DHT22;7656;51.954;7.998;2023-02-28T22:51:55;0.90;99.90
15111;DHT22;7656;51.954;7.998;2023-02-28T22:56:18;0.80;99.90
15111;DHT22;7656;51.954;7.998;2023-02-28T23:00:42;0.60;99.90
15111;DHT22;7656;51.954;7.998;2023-02-28T23:05:04;0.50;99.90
15111;DHT22;7656;51.954;7.998;2023-02-28T23:09:25;0.40;99.90
15111;DHT22;7656;51.954;7.998;2023-02-28T23:13:47;0.30;99.90
15111;DHT22;7656;51.954;7.998;2023-02-28T23:18:18;0.40;99.90
15111;DHT22;7656;51.954;7.998;2023-02-28T23:22:39;0.30;99.90
15111;DHT22;7656;51.954;7.998;2023-02-28T23:27:02;0.40;99.90
15111;DHT22;7656;51.954;7.998;2023-02-28T23:31:24;0.50;99.90
15111;DHT22;7656;51.954;7.998;2023-02-28T23:35:46;0.30;99.90
15111;DHT22;7656;51.954;7.998;2023-02-28T23:40:09;0.30;99.90
15111;DHT22;7656;51.954;7.998;2023-02-28T23:44:31;0.30;99.90
15111;DHT22;7656;51.954;7.998;2023-02-28T23:48:52;0.20;99.90
15111;DHT22;7656;51.954;7.998;2023-02-28T23:53:13;0.30;99.90
15111;DHT22;7656;51.954;7.998;2023-02-28T23:57:34;0.30;99.90
